sensor_id;sensor_type;location;lat;lon;timestamp;noise_LAeq;noise_LA_min;noise_LA_max;noise_LA01;noise_LA95
77134;Laerm;25175;50.140;18.990;2023-01-01T00:01:18;46.23;35.89;74.46;;
77134;Laerm;25175;50.140;18.990;2023-01-01T00:04:27;44.00;36.00;68.37;;
77134;Laerm;25175;50.140;18.990;2023-01-01T00:07:34;45.06;36.24;71.22;;
77134;Laerm;25175;50.140;18.990;2023-01-01T00:10:41;45.50;36.10;68.82;;
77134;Laerm;25175;50.140;18.990;2023-01-01T00:13:52;46.57;36.09;76.53;;
77134;Laerm;25175;50.140;18.990;2023-01-01T00:16:58;49.78;35.96;79.11;;
77134;Laerm;25175;50.140;18.990;2023-01-01T00:20:08;42.06;35.84;67.55;;
77134;Laerm;25175;50.140;18.990;2023-01-01T00:23:17;44.88;36.36;69.68;;
77134;Laerm;25175;50.140;18.990;2023-01-01T00:26:28;45.48;36.08;70.52;;
77134;Laerm;25175;50.140;18.990;2023-01-01T00:29:51;42.12;35.77;68.73;;
77134;Laerm;25175;50.140;18.990;2023-01-01T00:32:56;41.57;35.98;56.28;;
77134;Laerm;25175;50.140;18.990;2023-01-01T00:36:10;44.92;36.04;61.93;;
77134;Laerm;25175;50.140;18.990;2023-01-01T00:39:18;41.39;35.84;58.90;;
77134;Laerm;25175;50.140;18.990;2023-01-01T00:42:58;42.70;36.26;61.04;;
77134;Laerm;25175;50.140;18.990;2023-01-01T00:46:08;41.27;35.80;55.30;;
77134;Laerm;25175;50.140;18.990;2023-01-01T00:49:14;45.37;36.29;69.43;;
77134;Laerm;25175;50.140;18.990;2023-01-01T00:52:23;40.07;36.25;57.80;;
77134;Laerm;25175;50.140;18.990;2023-01-01T00:55:28;41.29;35.99;63.43;;
77134;Laerm;25175;50.140;18.990;2023-01-01T00:58:35;38.52;35.83;51.09;;
77134;Laerm;25175;50.140;18.990;2023-01-01T01:01:57;41.58;35.70;68.77;;
77134;Laerm;25175;50.140;18.990;2023-01-01T01:05:05;40.09;35.39;56.16;;
77134;Laerm;25175;50.140;18.990;2023-01-01T01:08:15;40.60;35.69;58.57;;
77134;Laerm;25175;50.140;18.990;2023-01-01T01:16:17;41.47;35.69;60.55;;
77134;Laerm;25175;50.140;18.990;2023-01-01T01:19:09;40.09;35.60;52.81;;
77134;Laerm;25175;50.140;18.990;2023-01-01T01:22:19;39.64;35.42;53.42;;
77134;Laerm;25175;50.140;18.990;2023-01-01T01:25:28;38.13;35.53;56.09;;
77134;Laerm;25175;50.140;18.990;2023-01-01T01:28:33;41.58;35.61;61.75;;
77134;Laerm;25175;50.140;18.990;2023-01-01T01:31:40;40.56;35.13;51.61;;
77134;Laerm;25175;50.140;18.990;2023-01-01T01:34:46;42.29;35.65;67.82;;
77134;Laerm;25175;50.140;18.990;2023-01-01T01:37:52;46.48;35.80;74.96;;
77134;Laerm;25175;50.140;18.990;2023-01-01T01:41:02;42.77;35.80;74.26;;
77134;Laerm;25175;50.140;18.990;2023-01-01T01:44:54;46.74;35.72;80.97;;
77134;Laerm;25175;50.140;18.990;2023-01-01T01:48:06;40.68;35.86;64.91;;
77134;Laerm;25175;50.140;18.990;2023-01-01T01:51:23;38.83;35.42;49.58;;
77134;Laerm;25175;50.140;18.990;2023-01-01T01:54:35;42.52;35.59;55.88;;
77134;Laerm;25175;50.140;18.990;2023-01-01T01:57:44;38.36;35.58;50.03;;
77134;Laerm;25175;50.140;18.990;2023-01-01T02:00:50;38.48;35.49;52.51;;
77134;Laerm;25175;50.140;18.990;2023-01-01T02:04:00;38.02;35.57;45.50;;
77134;Laerm;25175;50.140;18.990;2023-01-01T02:07:07;38.53;35.18;54.09;;
77134;Laerm;25175;50.140;18.990;2023-01-01T02:10:12;43.81;35.75;70.34;;
77134;Laerm;25175;50.140;18.990;2023-01-01T02:13:22;43.19;35.88;66.85;;
77134;Laerm;25175;50.140;18.990;2023-01-01T02:16:43;39.74;35.40;53.24;;
77134;Laerm;25175;50.140;18.990;2023-01-01T02:20:20;40.59;35.97;59.10;;
77134;Laerm;25175;50.140;18.990;2023-01-01T02:24:01;38.93;35.30;52.10;;
77134;Laerm;25175;50.140;18.990;2023-01-01T02:27:33;40.23;35.54;55.11;;
77134;Laerm;25175;50.140;18.990;2023-01-01T02:30:55;51.19;35.31;72.11;;
77134;Laerm;25175;50.140;18.990;2023-01-01T02:34:08;39.76;34.92;57.05;;
77134;Laerm;25175;50.140;18.990;2023-01-01T02:37:19;37.52;35.24;46.69;;
77134;Laerm;25175;50.140;18.990;2023-01-01T02:40:28;40.63;35.59;56.84;;
77134;Laerm;25175;50.140;18.990;2023-01-01T02:43:35;39.30;35.55;59.58;;
77134;Laerm;25175;50.140;18.990;2023-01-01T02:46:44;40.87;35.71;55.36;;
77134;Laerm;25175;50.140;18.990;2023-01-01T02:50:00;40.73;35.05;53.05;;
77134;Laerm;25175;50.140;18.990;2023-01-01T02:53:24;37.24;34.96;40.90;;
77134;Laerm;25175;50.140;18.990;2023-01-01T02:56:43;40.56;34.97;54.75;;
77134;Laerm;25175;50.140;18.990;2023-01-01T03:00:03;43.98;35.32;64.00;;
77134;Laerm;25175;50.140;18.990;2023-01-01T03:03:40;38.48;35.16;56.33;;
77134;Laerm;25175;50.140;18.990;2023-01-01T03:07:04;38.84;34.72;51.96;;
77134;Laerm;25175;50.140;18.990;2023-01-01T03:10:20;37.70;35.22;45.28;;
77134;Laerm;25175;50.140;18.990;2023-01-01T03:14:17;38.47;35.12;58.96;;
77134;Laerm;25175;50.140;18.990;2023-01-01T03:18:00;37.96;35.12;48.80;;
77134;Laerm;25175;50.140;18.990;2023-01-01T03:21:20;43.73;35.00;68.19;;
77134;Laerm;25175;50.140;18.990;2023-01-01T03:24:49;39.85;35.14;60.04;;
77134;Laerm;25175;50.140;18.990;2023-01-01T03:28:06;39.01;34.49;57.54;;
77134;Laerm;25175;50.140;18.990;2023-01-01T03:31:21;37.09;34.72;42.77;;
77134;Laerm;25175;50.140;18.990;2023-01-01T03:35:32;37.07;34.41;44.54;;
77134;Laerm;25175;50.140;18.990;2023-01-01T03:38:49;40.04;34.63;54.58;;
77134;Laerm;25175;50.140;18.990;2023-01-01T03:42:10;39.68;34.32;70.55;;
77134;Laerm;25175;50.140;18.990;2023-01-01T03:45:28;44.04;35.04;73.84;;
77134;Laerm;25175;50.140;18.990;2023-01-01T03:48:35;39.88;34.77;51.47;;
77134;Laerm;25175;50.140;18.990;2023-01-01T03:52:28;38.24;34.18;56.51;;
77134;Laerm;25175;50.140;18.990;2023-01-01T03:55:47;37.27;34.43;55.92;;
77134;Laerm;25175;50.140;18.990;2023-01-01T03:59:10;38.09;35.12;48.16;;
77134;Laerm;25175;50.140;18.990;2023-01-01T04:02:32;39.82;35.43;53.35;;
77134;Laerm;25175;50.140;18.990;2023-01-01T04:05:42;45.06;37.56;62.37;;
77134;Laerm;25175;50.140;18.990;2023-01-01T04:08:59;56.09;36.49;78.87;;
77134;Laerm;25175;50.140;18.990;2023-01-01T04:16:51;39.21;35.02;48.54;;
77134;Laerm;25175;50.140;18.990;2023-01-01T04:19:59;40.17;35.09;57.44;;
77134;Laerm;25175;50.140;18.990;2023-01-01T04:23:05;37.44;34.85;41.24;;
77134;Laerm;25175;50.140;18.990;2023-01-01T04:26:15;38.62;34.44;50.05;;
77134;Laerm;25175;50.140;18.990;2023-01-01T04:29:37;37.23;34.36;46.16;;
77134;Laerm;25175;50.140;18.990;2023-01-01T04:32:46;38.67;35.01;53.67;;
77134;Laerm;25175;50.140;18.990;2023-01-01T04:35:51;38.91;34.94;54.67;;
77134;Laerm;25175;50.140;18.990;2023-01-01T04:39:08;43.29;34.89;72.00;;
77134;Laerm;25175;50.140;18.990;2023-01-01T04:42:14;39.46;35.04;57.80;;
77134;Laerm;25175;50.140;18.990;2023-01-01T04:45:20;39.56;34.96;57.10;;
77134;Laerm;25175;50.140;18.990;2023-01-01T04:48:33;41.15;35.40;53.40;;
77134;Laerm;25175;50.140;18.990;2023-01-01T04:51:40;42.03;35.05;63.03;;
77134;Laerm;25175;50.140;18.990;2023-01-01T04:54:51;40.78;35.37;51.62;;
77134;Laerm;25175;50.140;18.990;2023-01-01T04:57:57;38.88;34.70;63.42;;
77134;Laerm;25175;50.140;18.990;2023-01-01T05:04:37;40.16;35.23;55.73;;
77134;Laerm;25175;50.140;18.990;2023-01-01T05:07:45;48.70;35.57;73.71;;
77134;Laerm;25175;50.140;18.990;2023-01-01T05:11:00;44.20;35.32;64.59;;
77134;Laerm;25175;50.140;18.990;2023-01-01T05:14:07;46.07;34.75;70.79;;
77134;Laerm;25175;50.140;18.990;2023-01-01T05:17:48;39.40;35.48;51.48;;
77134;Laerm;25175;50.140;18.990;2023-01-01T05:21:14;40.45;34.49;67.92;;
77134;Laerm;25175;50.140;18.990;2023-01-01T05:24:21;38.28;34.83;54.34;;
77134;Laerm;25175;50.140;18.990;2023-01-01T05:27:31;36.81;34.16;53.33;;
77134;Laerm;25175;50.140;18.990;2023-01-01T05:30:40;40.20;34.11;55.25;;
77134;Laerm;25175;50.140;18.990;2023-01-01T05:33:48;41.66;34.79;55.36;;
77134;Laerm;25175;50.140;18.990;2023-01-01T05:37:36;42.13;34.65;68.20;;
77134;Laerm;25175;50.140;18.990;2023-01-01T05:40:42;40.84;35.36;61.78;;
77134;Laerm;25175;50.140;18.990;2023-01-01T05:43:51;42.56;35.80;58.88;;
77134;Laerm;25175;50.140;18.990;2023-01-01T05:47:00;41.27;35.48;61.57;;
77134;Laerm;25175;50.140;18.990;2023-01-01T05:50:08;41.35;34.75;56.31;;
77134;Laerm;25175;50.140;18.990;2023-01-01T05:53:17;39.59;34.85;56.96;;
77134;Laerm;25175;50.140;18.990;2023-01-01T05:56:26;39.27;34.70;57.52;;
77134;Laerm;25175;50.140;18.990;2023-01-01T05:59:33;38.23;34.97;54.24;;
77134;Laerm;25175;50.140;18.990;2023-01-01T06:02:39;43.53;34.95;70.08;;
77134;Laerm;25175;50.140;18.990;2023-01-01T06:09:49;38.67;34.98;55.87;;
77134;Laerm;25175;50.140;18.990;2023-01-01T06:13:26;41.70;35.15;60.87;;
77134;Laerm;25175;50.140;18.990;2023-01-01T06:16:35;43.83;36.10;64.05;;
77134;Laerm;25175;50.140;18.990;2023-01-01T06:19:44;43.05;35.14;64.41;;
77134;Laerm;25175;50.140;18.990;2023-01-01T06:23:11;40.00;35.66;59.77;;
77134;Laerm;25175;50.140;18.990;2023-01-01T06:26:27;40.22;35.90;58.64;;
77134;Laerm;25175;50.140;18.990;2023-01-01T06:29:36;41.76;34.89;63.14;;
77134;Laerm;25175;50.140;18.990;2023-01-01T06:32:43;42.94;36.05;61.02;;
77134;Laerm;25175;50.140;18.990;2023-01-01T06:35:49;40.33;35.42;59.17;;
77134;Laerm;25175;50.140;18.990;2023-01-01T06:38:56;41.02;35.07;61.68;;
77134;Laerm;25175;50.140;18.990;2023-01-01T06:42:12;38.80;35.22;52.11;;
77134;Laerm;25175;50.140;18.990;2023-01-01T06:45:24;39.43;34.92;56.54;;
77134;Laerm;25175;50.140;18.990;2023-01-01T06:48:44;40.29;34.82;56.03;;
77134;Laerm;25175;50.140;18.990;2023-01-01T06:51:50;44.61;35.35;59.79;;
77134;Laerm;25175;50.140;18.990;2023-01-01T06:54:56;39.69;35.00;63.30;;
77134;Laerm;25175;50.140;18.990;2023-01-01T06:58:07;39.54;34.86;52.47;;
77134;Laerm;25175;50.140;18.990;2023-01-01T07:01:18;40.39;34.58;61.38;;
77134;Laerm;25175;50.140;18.990;2023-01-01T07:04:24;43.02;35.50;62.84;;
77134;Laerm;25175;50.140;18.990;2023-01-01T07:07:33;42.65;34.49;69.78;;
77134;Laerm;25175;50.140;18.990;2023-01-01T07:10:45;39.86;35.03;55.75;;
77134;Laerm;25175;50.140;18.990;2023-01-01T07:14:07;39.08;35.21;58.24;;
77134;Laerm;25175;50.140;18.990;2023-01-01T07:17:16;43.08;35.59;56.01;;
77134;Laerm;25175;50.140;18.990;2023-01-01T07:24:11;37.92;34.76;53.56;;
77134;Laerm;25175;50.140;18.990;2023-01-01T07:27:21;38.06;34.65;52.74;;
77134;Laerm;25175;50.140;18.990;2023-01-01T07:30:42;42.47;35.17;62.47;;
77134;Laerm;25175;50.140;18.990;2023-01-01T07:34:05;42.12;35.07;55.60;;
77134;Laerm;25175;50.140;18.990;2023-01-01T07:37:11;42.11;34.75;67.25;;
77134;Laerm;25175;50.140;18.990;2023-01-01T07:40:40;40.24;35.02;58.36;;
77134;Laerm;25175;50.140;18.990;2023-01-01T07:43:46;39.68;34.91;50.75;;
77134;Laerm;25175;50.140;18.990;2023-01-01T07:47:13;42.88;35.48;64.66;;
77134;Laerm;25175;50.140;18.990;2023-01-01T07:50:27;39.63;34.82;55.28;;
77134;Laerm;25175;50.140;18.990;2023-01-01T07:53:33;41.03;35.30;56.68;;
77134;Laerm;25175;50.140;18.990;2023-01-01T07:57:41;40.88;34.54;52.47;;
77134;Laerm;25175;50.140;18.990;2023-01-01T08:00:48;42.99;34.30;56.52;;
77134;Laerm;25175;50.140;18.990;2023-01-01T08:04:10;40.91;35.02;57.63;;
77134;Laerm;25175;50.140;18.990;2023-01-01T08:07:16;37.48;34.10;47.48;;
77134;Laerm;25175;50.140;18.990;2023-01-01T08:10:24;40.49;34.54;52.80;;
77134;Laerm;25175;50.140;18.990;2023-01-01T08:14:02;40.79;35.07;55.23;;
77134;Laerm;25175;50.140;18.990;2023-01-01T08:17:08;38.77;35.20;47.61;;
77134;Laerm;25175;50.140;18.990;2023-01-01T08:20:16;43.30;34.15;62.11;;
77134;Laerm;25175;50.140;18.990;2023-01-01T08:23:24;38.95;34.83;53.98;;
77134;Laerm;25175;50.140;18.990;2023-01-01T08:26:33;42.73;36.14;56.84;;
77134;Laerm;25175;50.140;18.990;2023-01-01T08:29:40;40.44;35.12;57.46;;
77134;Laerm;25175;50.140;18.990;2023-01-01T08:32:47;45.74;34.40;58.99;;
77134;Laerm;25175;50.140;18.990;2023-01-01T08:35:58;44.77;35.18;61.41;;
77134;Laerm;25175;50.140;18.990;2023-01-01T08:43:21;43.48;35.15;64.50;;
77134;Laerm;25175;50.140;18.990;2023-01-01T08:47:00;45.11;35.74;64.94;;
77134;Laerm;25175;50.140;18.990;2023-01-01T08:50:08;44.03;35.34;62.58;;
77134;Laerm;25175;50.140;18.990;2023-01-01T08:53:16;41.59;35.54;56.47;;
77134;Laerm;25175;50.140;18.990;2023-01-01T08:56:23;46.44;35.34;68.32;;
77134;Laerm;25175;50.140;18.990;2023-01-01T08:59:32;46.31;34.81;70.44;;
77134;Laerm;25175;50.140;18.990;2023-01-01T09:02:39;44.20;35.32;60.80;;
77134;Laerm;25175;50.140;18.990;2023-01-01T09:05:44;44.13;34.63;59.52;;
77134;Laerm;25175;50.140;18.990;2023-01-01T09:08:53;38.30;34.57;59.14;;
77134;Laerm;25175;50.140;18.990;2023-01-01T09:15:53;41.03;34.88;60.26;;
77134;Laerm;25175;50.140;18.990;2023-01-01T09:18:58;45.47;34.66;70.59;;
77134;Laerm;25175;50.140;18.990;2023-01-01T09:22:08;43.31;35.46;61.79;;
77134;Laerm;25175;50.140;18.990;2023-01-01T09:29:24;44.62;34.42;67.90;;
77134;Laerm;25175;50.140;18.990;2023-01-01T09:32:29;39.73;34.63;59.30;;
77134;Laerm;25175;50.140;18.990;2023-01-01T09:35:35;42.55;34.74;66.81;;
77134;Laerm;25175;50.140;18.990;2023-01-01T09:38:40;44.73;34.96;67.09;;
77134;Laerm;25175;50.140;18.990;2023-01-01T09:42:16;43.79;35.34;65.14;;
77134;Laerm;25175;50.140;18.990;2023-01-01T09:45:27;44.70;34.75;66.63;;
77134;Laerm;25175;50.140;18.990;2023-01-01T09:48:43;41.09;34.95;63.38;;
77134;Laerm;25175;50.140;18.990;2023-01-01T09:51:58;41.31;34.67;61.53;;
77134;Laerm;25175;50.140;18.990;2023-01-01T09:55:40;43.28;33.91;70.10;;
77134;Laerm;25175;50.140;18.990;2023-01-01T09:58:50;46.16;33.94;69.08;;
77134;Laerm;25175;50.140;18.990;2023-01-01T10:02:20;43.95;34.23;67.94;;
77134;Laerm;25175;50.140;18.990;2023-01-01T10:05:42;38.24;34.01;58.22;;
77134;Laerm;25175;50.140;18.990;2023-01-01T10:09:12;39.18;34.60;54.96;;
77134;Laerm;25175;50.140;18.990;2023-01-01T10:12:40;43.94;34.66;65.84;;
77134;Laerm;25175;50.140;18.990;2023-01-01T10:16:08;41.13;34.40;65.48;;
77134;Laerm;25175;50.140;18.990;2023-01-01T10:19:30;40.75;34.90;59.87;;
77134;Laerm;25175;50.140;18.990;2023-01-01T10:22:48;44.14;34.77;65.35;;
77134;Laerm;25175;50.140;18.990;2023-01-01T10:26:14;47.29;34.09;68.49;;
77134;Laerm;25175;50.140;18.990;2023-01-01T10:32:58;44.65;35.17;65.98;;
77134;Laerm;25175;50.140;18.990;2023-01-01T10:36:25;39.03;34.49;51.83;;
77134;Laerm;25175;50.140;18.990;2023-01-01T10:39:31;41.78;34.41;54.20;;
77134;Laerm;25175;50.140;18.990;2023-01-01T10:42:58;41.69;34.81;55.75;;
77134;Laerm;25175;50.140;18.990;2023-01-01T10:46:08;39.83;34.67;62.06;;
77134;Laerm;25175;50.140;18.990;2023-01-01T10:49:27;42.17;34.71;56.48;;
77134;Laerm;25175;50.140;18.990;2023-01-01T10:52:36;45.39;35.44;58.52;;
77134;Laerm;25175;50.140;18.990;2023-01-01T10:55:49;42.34;35.39;55.22;;
77134;Laerm;25175;50.140;18.990;2023-01-01T10:58:59;44.03;35.68;63.28;;
77134;Laerm;25175;50.140;18.990;2023-01-01T11:02:18;40.67;35.08;53.81;;
77134;Laerm;25175;50.140;18.990;2023-01-01T11:05:27;42.10;35.21;57.71;;
77134;Laerm;25175;50.140;18.990;2023-01-01T11:08:37;38.55;34.49;52.78;;
77134;Laerm;25175;50.140;18.990;2023-01-01T11:11:55;40.30;35.44;53.47;;
77134;Laerm;25175;50.140;18.990;2023-01-01T11:15:05;40.72;35.25;62.35;;
77134;Laerm;25175;50.140;18.990;2023-01-01T11:18:15;45.05;36.07;65.69;;
77134;Laerm;25175;50.140;18.990;2023-01-01T11:21:36;41.93;34.89;60.49;;
77134;Laerm;25175;50.140;18.990;2023-01-01T11:25:16;40.25;35.03;62.30;;
77134;Laerm;25175;50.140;18.990;2023-01-01T11:28:58;41.22;34.76;57.03;;
77134;Laerm;25175;50.140;18.990;2023-01-01T11:32:18;41.66;35.90;64.58;;
77134;Laerm;25175;50.140;18.990;2023-01-01T11:35:30;42.42;35.15;63.81;;
77134;Laerm;25175;50.140;18.990;2023-01-01T11:39:28;45.56;35.49;63.71;;
77134;Laerm;25175;50.140;18.990;2023-01-01T11:43:06;39.50;34.84;55.18;;
77134;Laerm;25175;50.140;18.990;2023-01-01T11:46:23;43.15;35.84;63.85;;
77134;Laerm;25175;50.140;18.990;2023-01-01T11:49:42;42.57;35.72;56.88;;
77134;Laerm;25175;50.140;18.990;2023-01-01T11:52:51;41.30;35.66;57.95;;
77134;Laerm;25175;50.140;18.990;2023-01-01T11:56:11;43.69;35.31;62.27;;
77134;Laerm;25175;50.140;18.990;2023-01-01T11:59:26;40.59;35.30;59.67;;
77134;Laerm;25175;50.140;18.990;2023-01-01T12:02:59;45.15;35.94;65.70;;
77134;Laerm;25175;50.140;18.990;2023-01-01T12:06:22;46.42;36.58;61.46;;
77134;Laerm;25175;50.140;18.990;2023-01-01T12:09:42;42.52;36.25;60.94;;
77134;Laerm;25175;50.140;18.990;2023-01-01T12:13:01;46.95;36.13;73.08;;
77134;Laerm;25175;50.140;18.990;2023-01-01T12:16:20;41.98;36.40;57.01;;
77134;Laerm;25175;50.140;18.990;2023-01-01T12:19:57;47.65;36.84;73.03;;
77134;Laerm;25175;50.140;18.990;2023-01-01T12:23:14;47.75;36.09;69.96;;
77134;Laerm;25175;50.140;18.990;2023-01-01T12:27:04;43.27;36.05;67.16;;
77134;Laerm;25175;50.140;18.990;2023-01-01T12:30:24;42.23;36.22;60.76;;
77134;Laerm;25175;50.140;18.990;2023-01-01T12:33:56;45.30;36.18;62.56;;
77134;Laerm;25175;50.140;18.990;2023-01-01T12:37:26;43.20;35.66;60.77;;
77134;Laerm;25175;50.140;18.990;2023-01-01T12:40:51;40.77;36.45;60.41;;
77134;Laerm;25175;50.140;18.990;2023-01-01T12:44:20;46.43;36.00;61.56;;
77134;Laerm;25175;50.140;18.990;2023-01-01T12:47:47;46.29;36.93;73.85;;
77134;Laerm;25175;50.140;18.990;2023-01-01T12:51:09;46.94;37.22;67.25;;
77134;Laerm;25175;50.140;18.990;2023-01-01T12:55:12;46.68;36.86;64.61;;
77134;Laerm;25175;50.140;18.990;2023-01-01T13:02:34;45.13;36.40;61.18;;
77134;Laerm;25175;50.140;18.990;2023-01-01T13:05:50;44.74;36.98;66.81;;
77134;Laerm;25175;50.140;18.990;2023-01-01T13:09:42;42.45;36.53;56.59;;
77134;Laerm;25175;50.140;18.990;2023-01-01T13:13:01;44.51;37.22;55.52;;
77134;Laerm;25175;50.140;18.990;2023-01-01T13:19:52;46.02;36.60;62.08;;
77134;Laerm;25175;50.140;18.990;2023-01-01T13:23:04;42.21;35.65;53.92;;
77134;Laerm;25175;50.140;18.990;2023-01-01T13:26:39;47.01;36.62;62.85;;
77134;Laerm;25175;50.140;18.990;2023-01-01T13:30:49;47.02;36.57;62.44;;
77134;Laerm;25175;50.140;18.990;2023-01-01T13:34:31;45.65;35.68;66.25;;
77134;Laerm;25175;50.140;18.990;2023-01-01T13:37:58;44.69;36.08;65.20;;
77134;Laerm;25175;50.140;18.990;2023-01-01T13:41:32;41.02;35.75;62.69;;
77134;Laerm;25175;50.140;18.990;2023-01-01T13:44:46;43.60;35.56;66.20;;
77134;Laerm;25175;50.140;18.990;2023-01-01T13:48:14;43.63;36.51;65.27;;
77134;Laerm;25175;50.140;18.990;2023-01-01T13:52:04;43.07;36.35;54.49;;
77134;Laerm;25175;50.140;18.990;2023-01-01T13:55:58;45.40;36.33;68.80;;
77134;Laerm;25175;50.140;18.990;2023-01-01T13:59:58;45.14;37.10;66.48;;
77134;Laerm;25175;50.140;18.990;2023-01-01T14:03:18;46.65;37.43;61.56;;
77134;Laerm;25175;50.140;18.990;2023-01-01T14:06:34;44.27;36.88;59.05;;
77134;Laerm;25175;50.140;18.990;2023-01-01T14:09:41;44.31;37.30;58.66;;
77134;Laerm;25175;50.140;18.990;2023-01-01T14:12:50;45.13;37.00;62.02;;
77134;Laerm;25175;50.140;18.990;2023-01-01T14:16:08;43.74;37.05;61.64;;
77134;Laerm;25175;50.140;18.990;2023-01-01T14:19:40;45.31;36.45;69.77;;
77134;Laerm;25175;50.140;18.990;2023-01-01T14:22:51;41.54;35.89;55.88;;
77134;Laerm;25175;50.140;18.990;2023-01-01T14:26:35;44.22;36.42;65.54;;
77134;Laerm;25175;50.140;18.990;2023-01-01T14:29:50;42.57;36.51;55.95;;
77134;Laerm;25175;50.140;18.990;2023-01-01T14:33:01;44.41;36.87;59.23;;
77134;Laerm;25175;50.140;18.990;2023-01-01T14:36:31;46.54;36.59;67.14;;
77134;Laerm;25175;50.140;18.990;2023-01-01T14:39:37;44.42;37.26;64.32;;
77134;Laerm;25175;50.140;18.990;2023-01-01T14:42:52;44.47;37.09;61.04;;
77134;Laerm;25175;50.140;18.990;2023-01-01T14:46:01;45.20;37.54;60.42;;
77134;Laerm;25175;50.140;18.990;2023-01-01T14:49:39;44.73;37.12;69.42;;
77134;Laerm;25175;50.140;18.990;2023-01-01T14:52:54;43.51;37.08;57.06;;
77134;Laerm;25175;50.140;18.990;2023-01-01T15:00:51;42.92;36.57;56.45;;
77134;Laerm;25175;50.140;18.990;2023-01-01T15:04:00;42.36;37.16;54.11;;
77134;Laerm;25175;50.140;18.990;2023-01-01T15:07:20;43.03;37.09;55.34;;
77134;Laerm;25175;50.140;18.990;2023-01-01T15:10:32;62.24;36.78;92.06;;
77134;Laerm;25175;50.140;18.990;2023-01-01T15:13:51;44.75;37.62;61.20;;
77134;Laerm;25175;50.140;18.990;2023-01-01T15:20:56;45.10;37.98;71.00;;
77134;Laerm;25175;50.140;18.990;2023-01-01T15:24:17;44.49;37.90;59.87;;
77134;Laerm;25175;50.140;18.990;2023-01-01T15:27:36;45.23;38.00;67.24;;
77134;Laerm;25175;50.140;18.990;2023-01-01T15:30:44;48.80;37.42;65.16;;
77134;Laerm;25175;50.140;18.990;2023-01-01T15:41:42;50.18;36.65;73.08;;
77134;Laerm;25175;50.140;18.990;2023-01-01T15:44:51;50.44;37.75;71.95;;
77134;Laerm;25175;50.140;18.990;2023-01-01T15:52:12;43.81;37.37;60.24;;
77134;Laerm;25175;50.140;18.990;2023-01-01T15:55:20;45.06;38.45;63.44;;
77134;Laerm;25175;50.140;18.990;2023-01-01T15:58:35;44.33;38.01;64.34;;
77134;Laerm;25175;50.140;18.990;2023-01-01T16:01:43;46.02;37.68;59.06;;
77134;Laerm;25175;50.140;18.990;2023-01-01T16:04:50;44.95;37.54;58.67;;
77134;Laerm;25175;50.140;18.990;2023-01-01T16:08:02;42.97;36.13;58.11;;
77134;Laerm;25175;50.140;18.990;2023-01-01T16:11:23;42.60;36.82;61.31;;
77134;Laerm;25175;50.140;18.990;2023-01-01T16:14:40;46.59;37.55;62.26;;
77134;Laerm;25175;50.140;18.990;2023-01-01T16:17:46;44.72;38.06;65.31;;
77134;Laerm;25175;50.140;18.990;2023-01-01T16:20:54;50.37;37.36;75.20;;
77134;Laerm;25175;50.140;18.990;2023-01-01T16:24:16;49.97;37.65;83.71;;
77134;Laerm;25175;50.140;18.990;2023-01-01T16:27:23;54.48;36.34;81.69;;
77134;Laerm;25175;50.140;18.990;2023-01-01T16:30:32;50.42;38.03;73.06;;
77134;Laerm;25175;50.140;18.990;2023-01-01T16:34:13;46.23;37.16;78.46;;
77134;Laerm;25175;50.140;18.990;2023-01-01T16:37:22;48.95;37.21;81.63;;
77134;Laerm;25175;50.140;18.990;2023-01-01T16:40:34;48.15;36.73;67.51;;
77134;Laerm;25175;50.140;18.990;2023-01-01T16:47:26;45.83;36.62;73.86;;
77134;Laerm;25175;50.140;18.990;2023-01-01T16:50:35;46.72;37.22;76.76;;
77134;Laerm;25175;50.140;18.990;2023-01-01T16:53:49;44.22;37.84;69.58;;
77134;Laerm;25175;50.140;18.990;2023-01-01T16:56:59;49.10;37.70;69.60;;
77134;Laerm;25175;50.140;18.990;2023-01-01T17:00:13;43.46;37.64;66.14;;
77134;Laerm;25175;50.140;18.990;2023-01-01T17:03:22;47.76;38.10;74.42;;
77134;Laerm;25175;50.140;18.990;2023-01-01T17:06:36;47.13;37.90;69.32;;
77134;Laerm;25175;50.140;18.990;2023-01-01T17:09:43;43.15;37.12;53.68;;
77134;Laerm;25175;50.140;18.990;2023-01-01T17:12:48;43.85;37.23;54.44;;
77134;Laerm;25175;50.140;18.990;2023-01-01T17:15:57;44.25;37.17;62.91;;
77134;Laerm;25175;50.140;18.990;2023-01-01T17:19:13;43.61;37.34;54.07;;
77134;Laerm;25175;50.140;18.990;2023-01-01T17:22:26;44.33;37.16;62.03;;
77134;Laerm;25175;50.140;18.990;2023-01-01T17:25:42;61.47;37.07;97.96;;
77134;Laerm;25175;50.140;18.990;2023-01-01T17:28:51;64.59;36.47;97.88;;
77134;Laerm;25175;50.140;18.990;2023-01-01T17:31:57;65.03;37.12;96.53;;
77134;Laerm;25175;50.140;18.990;2023-01-01T17:35:09;46.25;37.09;70.40;;
77134;Laerm;25175;50.140;18.990;2023-01-01T17:38:17;51.88;37.39;75.84;;
77134;Laerm;25175;50.140;18.990;2023-01-01T17:41:24;43.10;36.66;67.54;;
77134;Laerm;25175;50.140;18.990;2023-01-01T17:44:31;48.13;37.11;77.06;;
77134;Laerm;25175;50.140;18.990;2023-01-01T17:47:45;41.84;36.69;66.71;;
77134;Laerm;25175;50.140;18.990;2023-01-01T17:50:53;50.24;37.51;75.47;;
77134;Laerm;25175;50.140;18.990;2023-01-01T17:53:59;43.10;37.17;62.40;;
77134;Laerm;25175;50.140;18.990;2023-01-01T17:57:07;44.72;36.51;58.93;;
77134;Laerm;25175;50.140;18.990;2023-01-01T18:00:15;46.55;37.43;74.90;;
77134;Laerm;25175;50.140;18.990;2023-01-01T18:03:33;43.44;37.01;63.55;;
77134;Laerm;25175;50.140;18.990;2023-01-01T18:06:44;44.41;37.02;59.22;;
77134;Laerm;25175;50.140;18.990;2023-01-01T18:09:52;46.14;37.30;72.47;;
77134;Laerm;25175;50.140;18.990;2023-01-01T18:13:11;57.40;37.07;80.19;;
77134;Laerm;25175;50.140;18.990;2023-01-01T18:16:16;45.65;37.40;68.35;;
77134;Laerm;25175;50.140;18.990;2023-01-01T18:19:38;49.62;36.98;78.76;;
77134;Laerm;25175;50.140;18.990;2023-01-01T18:22:53;44.91;36.64;73.42;;
77134;Laerm;25175;50.140;18.990;2023-01-01T18:26:06;44.81;36.89;66.41;;
77134;Laerm;25175;50.140;18.990;2023-01-01T18:29:11;49.63;37.01;74.04;;
77134;Laerm;25175;50.140;18.990;2023-01-01T18:32:34;43.29;37.64;64.54;;
77134;Laerm;25175;50.140;18.990;2023-01-01T18:35:41;44.01;36.40;57.53;;
77134;Laerm;25175;50.140;18.990;2023-01-01T18:38:58;44.77;36.98;61.60;;
77134;Laerm;25175;50.140;18.990;2023-01-01T18:42:37;42.24;36.33;56.60;;
77134;Laerm;25175;50.140;18.990;2023-01-01T18:45:43;44.98;37.36;64.65;;
77134;Laerm;25175;50.140;18.990;2023-01-01T18:48:49;44.43;37.08;63.39;;
77134;Laerm;25175;50.140;18.990;2023-01-01T18:52:05;41.87;36.29;69.16;;
77134;Laerm;25175;50.140;18.990;2023-01-01T18:55:19;48.83;36.93;70.22;;
77134;Laerm;25175;50.140;18.990;2023-01-01T18:58:29;48.02;37.40;76.92;;
77134;Laerm;25175;50.140;18.990;2023-01-01T19:01:36;44.08;37.06;62.35;;
77134;Laerm;25175;50.140;18.990;2023-01-01T19:04:45;45.47;37.32;64.53;;
77134;Laerm;25175;50.140;18.990;2023-01-01T19:08:12;47.44;36.99;77.59;;
77134;Laerm;25175;50.140;18.990;2023-01-01T19:11:31;42.22;36.60;67.11;;